sensor_id;sensor_type;location;lat;lon;timestamp;P1;durP1;ratioP1;P2;durP2;ratioP2
78740;SDS011;68062;48.726;9.370;2023-05-07T00:00:19;5.43;;;3.70;;
78740;SDS011;68062;48.726;9.370;2023-05-07T00:02:46;4.57;;;4.30;;
78740;SDS011;68062;48.726;9.370;2023-05-07T00:05:14;5.90;;;4.53;;
78740;SDS011;68062;48.726;9.370;2023-05-07T00:07:41;7.87;;;3.83;;
78740;SDS011;68062;48.726;9.370;2023-05-07T00:10:08;4.47;;;3.60;;
78740;SDS011;68062;48.726;9.370;2023-05-07T00:12:37;3.70;;;3.50;;
78740;SDS011;68062;48.726;9.370;2023-05-07T00:15:05;4.87;;;4.57;;
78740;SDS011;68062;48.726;9.370;2023-05-07T00:17:32;5.83;;;4.87;;
78740;SDS011;68062;48.726;9.370;2023-05-07T00:19:59;5.90;;;4.27;;
78740;SDS011;68062;48.726;9.370;2023-05-07T00:22:27;4.93;;;3.10;;
78740;SDS011;68062;48.726;9.370;2023-05-07T00:24:55;3.77;;;3.03;;
78740;SDS011;68062;48.726;9.370;2023-05-07T00:27:22;3.70;;;3.50;;
78740;SDS011;68062;48.726;9.370;2023-05-07T00:29:49;7.10;;;4.10;;
78740;SDS011;68062;48.726;9.370;2023-05-07T00:32:16;4.60;;;4.10;;
78740;SDS011;68062;48.726;9.370;2023-05-07T00:34:43;4.43;;;3.60;;
78740;SDS011;68062;48.726;9.370;2023-05-07T00:37:10;4.60;;;3.93;;
78740;SDS011;68062;48.726;9.370;2023-05-07T00:39:38;4.10;;;3.23;;
78740;SDS011;68062;48.726;9.370;2023-05-07T00:42:05;7.97;;;4.10;;
78740;SDS011;68062;48.726;9.370;2023-05-07T00:44:31;5.23;;;3.73;;
78740;SDS011;68062;48.726;9.370;2023-05-07T00:46:58;5.23;;;4.57;;
78740;SDS011;68062;48.726;9.370;2023-05-07T00:49:31;4.70;;;4.20;;
78740;SDS011;68062;48.726;9.370;2023-05-07T00:52:05;5.63;;;4.10;;
78740;SDS011;68062;48.726;9.370;2023-05-07T00:54:33;4.80;;;4.40;;
78740;SDS011;68062;48.726;9.370;2023-05-07T00:57:03;3.93;;;3.73;;
78740;SDS011;68062;48.726;9.370;2023-05-07T00:59:30;8.93;;;4.80;;
78740;SDS011;68062;48.726;9.370;2023-05-07T01:01:57;4.40;;;4.10;;
78740;SDS011;68062;48.726;9.370;2023-05-07T01:04:24;5.03;;;4.43;;
78740;SDS011;68062;48.726;9.370;2023-05-07T01:06:52;8.97;;;4.57;;
78740;SDS011;68062;48.726;9.370;2023-05-07T01:09:21;5.23;;;3.67;;
78740;SDS011;68062;48.726;9.370;2023-05-07T01:11:49;5.03;;;3.87;;
78740;SDS011;68062;48.726;9.370;2023-05-07T01:14:19;4.33;;;4.03;;
78740;SDS011;68062;48.726;9.370;2023-05-07T01:16:46;4.30;;;3.93;;
78740;SDS011;68062;48.726;9.370;2023-05-07T01:19:14;4.13;;;3.90;;
78740;SDS011;68062;48.726;9.370;2023-05-07T01:21:45;5.03;;;4.37;;
78740;SDS011;68062;48.726;9.370;2023-05-07T01:24:16;4.10;;;3.50;;
78740;SDS011;68062;48.726;9.370;2023-05-07T01:26:44;4.40;;;4.13;;
78740;SDS011;68062;48.726;9.370;2023-05-07T01:29:13;6.17;;;4.90;;
78740;SDS011;68062;48.726;9.370;2023-05-07T01:31:40;5.10;;;4.10;;
78740;SDS011;68062;48.726;9.370;2023-05-07T01:34:09;5.27;;;4.97;;
78740;SDS011;68062;48.726;9.370;2023-05-07T01:36:38;7.07;;;4.93;;
78740;SDS011;68062;48.726;9.370;2023-05-07T01:39:06;6.03;;;4.37;;
78740;SDS011;68062;48.726;9.370;2023-05-07T01:41:35;6.00;;;4.67;;
78740;SDS011;68062;48.726;9.370;2023-05-07T01:44:02;3.97;;;3.80;;
78740;SDS011;68062;48.726;9.370;2023-05-07T01:46:30;4.90;;;3.70;;
78740;SDS011;68062;48.726;9.370;2023-05-07T01:48:57;4.20;;;3.90;;
78740;SDS011;68062;48.726;9.370;2023-05-07T01:51:25;5.17;;;4.30;;
78740;SDS011;68062;48.726;9.370;2023-05-07T01:53:52;4.40;;;4.10;;
78740;SDS011;68062;48.726;9.370;2023-05-07T01:56:19;6.17;;;4.00;;
78740;SDS011;68062;48.726;9.370;2023-05-07T01:58:48;4.27;;;4.00;;
78740;SDS011;68062;48.726;9.370;2023-05-07T02:01:16;9.00;;;3.83;;
78740;SDS011;68062;48.726;9.370;2023-05-07T02:03:43;3.70;;;3.50;;
78740;SDS011;68062;48.726;9.370;2023-05-07T02:06:17;5.27;;;5.00;;
78740;SDS011;68062;48.726;9.370;2023-05-07T02:08:45;5.10;;;4.53;;
78740;SDS011;68062;48.726;9.370;2023-05-07T02:11:13;4.60;;;4.20;;
78740;SDS011;68062;48.726;9.370;2023-05-07T02:13:40;7.37;;;4.60;;
78740;SDS011;68062;48.726;9.370;2023-05-07T02:16:09;4.47;;;4.10;;
78740;SDS011;68062;48.726;9.370;2023-05-07T02:18:37;6.00;;;4.97;;
78740;SDS011;68062;48.726;9.370;2023-05-07T02:21:04;7.57;;;5.50;;
78740;SDS011;68062;48.726;9.370;2023-05-07T02:23:31;7.10;;;4.97;;
78740;SDS011;68062;48.726;9.370;2023-05-07T02:25:57;5.20;;;4.30;;
78740;SDS011;68062;48.726;9.370;2023-05-07T02:28:24;5.63;;;4.93;;
78740;SDS011;68062;48.726;9.370;2023-05-07T02:30:56;5.90;;;4.50;;
78740;SDS011;68062;48.726;9.370;2023-05-07T02:33:25;4.47;;;4.10;;
78740;SDS011;68062;48.726;9.370;2023-05-07T02:35:52;4.50;;;4.20;;
78740;SDS011;68062;48.726;9.370;2023-05-07T02:38:19;7.80;;;4.47;;
78740;SDS011;68062;48.726;9.370;2023-05-07T02:40:45;5.03;;;4.73;;
78740;SDS011;68062;48.726;9.370;2023-05-07T02:43:12;4.13;;;3.90;;
78740;SDS011;68062;48.726;9.370;2023-05-07T02:45:43;4.43;;;4.13;;
78740;SDS011;68062;48.726;9.370;2023-05-07T02:48:10;5.23;;;4.17;;
78740;SDS011;68062;48.726;9.370;2023-05-07T02:50:39;4.73;;;4.10;;
78740;SDS011;68062;48.726;9.370;2023-05-07T02:53:05;5.43;;;3.97;;
78740;SDS011;68062;48.726;9.370;2023-05-07T02:55:33;6.47;;;4.13;;
78740;SDS011;68062;48.726;9.370;2023-05-07T02:58:00;4.00;;;3.80;;
78740;SDS011;68062;48.726;9.370;2023-05-07T03:00:28;4.33;;;4.00;;
78740;SDS011;68062;48.726;9.370;2023-05-07T03:03:11;4.83;;;3.93;;
78740;SDS011;68062;48.726;9.370;2023-05-07T03:05:39;6.53;;;4.40;;
78740;SDS011;68062;48.726;9.370;2023-05-07T03:08:06;6.70;;;4.37;;
78740;SDS011;68062;48.726;9.370;2023-05-07T03:10:33;5.80;;;5.07;;
78740;SDS011;68062;48.726;9.370;2023-05-07T03:13:00;5.00;;;4.33;;
78740;SDS011;68062;48.726;9.370;2023-05-07T03:15:28;7.10;;;4.13;;
78740;SDS011;68062;48.726;9.370;2023-05-07T03:17:55;5.00;;;4.43;;
78740;SDS011;68062;48.726;9.370;2023-05-07T03:20:22;5.40;;;4.60;;
78740;SDS011;68062;48.726;9.370;2023-05-07T03:22:50;5.50;;;4.07;;
78740;SDS011;68062;48.726;9.370;2023-05-07T03:25:18;4.40;;;4.10;;
78740;SDS011;68062;48.726;9.370;2023-05-07T03:27:45;6.03;;;4.60;;
78740;SDS011;68062;48.726;9.370;2023-05-07T03:30:12;4.30;;;4.00;;
78740;SDS011;68062;48.726;9.370;2023-05-07T03:32:39;4.60;;;4.30;;
78740;SDS011;68062;48.726;9.370;2023-05-07T03:35:09;5.60;;;4.70;;
78740;SDS011;68062;48.726;9.370;2023-05-07T03:37:37;6.47;;;3.93;;
78740;SDS011;68062;48.726;9.370;2023-05-07T03:40:06;4.97;;;4.37;;
78740;SDS011;68062;48.726;9.370;2023-05-07T03:42:42;5.20;;;4.23;;
78740;SDS011;68062;48.726;9.370;2023-05-07T03:45:10;5.13;;;4.73;;
78740;SDS011;68062;48.726;9.370;2023-05-07T03:47:42;10.83;;;4.50;;
78740;SDS011;68062;48.726;9.370;2023-05-07T03:50:12;4.57;;;4.10;;
78740;SDS011;68062;48.726;9.370;2023-05-07T03:52:39;5.07;;;4.10;;
78740;SDS011;68062;48.726;9.370;2023-05-07T03:55:09;8.70;;;4.10;;
78740;SDS011;68062;48.726;9.370;2023-05-07T03:57:38;4.40;;;4.07;;
78740;SDS011;68062;48.726;9.370;2023-05-07T04:00:05;6.27;;;4.20;;
78740;SDS011;68062;48.726;9.370;2023-05-07T04:02:45;5.23;;;4.10;;
78740;SDS011;68062;48.726;9.370;2023-05-07T04:05:14;4.87;;;4.10;;
78740;SDS011;68062;48.726;9.370;2023-05-07T04:07:44;4.13;;;3.53;;
78740;SDS011;68062;48.726;9.370;2023-05-07T04:10:15;5.73;;;3.93;;
78740;SDS011;68062;48.726;9.370;2023-05-07T04:12:44;4.87;;;4.30;;
78740;SDS011;68062;48.726;9.370;2023-05-07T04:15:16;5.40;;;4.50;;
78740;SDS011;68062;48.726;9.370;2023-05-07T04:17:43;4.63;;;4.33;;
78740;SDS011;68062;48.726;9.370;2023-05-07T04:20:13;4.73;;;4.30;;
78740;SDS011;68062;48.726;9.370;2023-05-07T04:22:42;5.60;;;4.60;;
78740;SDS011;68062;48.726;9.370;2023-05-07T04:25:09;6.00;;;3.87;;
78740;SDS011;68062;48.726;9.370;2023-05-07T04:27:38;4.37;;;4.07;;
78740;SDS011;68062;48.726;9.370;2023-05-07T04:30:05;5.90;;;4.40;;
78740;SDS011;68062;48.726;9.370;2023-05-07T04:32:36;5.50;;;4.43;;
78740;SDS011;68062;48.726;9.370;2023-05-07T04:35:04;6.10;;;5.00;;
78740;SDS011;68062;48.726;9.370;2023-05-07T04:37:31;6.27;;;4.53;;
78740;SDS011;68062;48.726;9.370;2023-05-07T04:39:59;5.53;;;4.30;;
78740;SDS011;68062;48.726;9.370;2023-05-07T04:42:26;4.63;;;4.30;;
78740;SDS011;68062;48.726;9.370;2023-05-07T04:44:55;6.73;;;4.60;;
78740;SDS011;68062;48.726;9.370;2023-05-07T04:47:23;4.60;;;4.30;;
78740;SDS011;68062;48.726;9.370;2023-05-07T04:49:50;5.10;;;4.80;;
78740;SDS011;68062;48.726;9.370;2023-05-07T04:52:16;6.20;;;4.43;;
78740;SDS011;68062;48.726;9.370;2023-05-07T04:54:43;5.27;;;4.63;;
78740;SDS011;68062;48.726;9.370;2023-05-07T04:57:10;4.40;;;4.13;;
78740;SDS011;68062;48.726;9.370;2023-05-07T04:59:38;4.80;;;4.50;;
78740;SDS011;68062;48.726;9.370;2023-05-07T05:02:06;4.50;;;4.20;;
78740;SDS011;68062;48.726;9.370;2023-05-07T05:04:33;4.80;;;4.50;;
78740;SDS011;68062;48.726;9.370;2023-05-07T05:07:00;7.17;;;4.60;;
78740;SDS011;68062;48.726;9.370;2023-05-07T05:09:29;4.60;;;4.30;;
78740;SDS011;68062;48.726;9.370;2023-05-07T05:11:55;6.00;;;4.60;;
78740;SDS011;68062;48.726;9.370;2023-05-07T05:14:22;6.10;;;4.50;;
78740;SDS011;68062;48.726;9.370;2023-05-07T05:16:50;5.43;;;4.87;;
78740;SDS011;68062;48.726;9.370;2023-05-07T05:19:18;5.73;;;4.90;;
78740;SDS011;68062;48.726;9.370;2023-05-07T05:21:45;7.10;;;5.80;;
78740;SDS011;68062;48.726;9.370;2023-05-07T05:24:12;4.53;;;4.27;;
78740;SDS011;68062;48.726;9.370;2023-05-07T05:26:39;5.40;;;4.50;;
78740;SDS011;68062;48.726;9.370;2023-05-07T05:29:06;5.30;;;4.80;;
78740;SDS011;68062;48.726;9.370;2023-05-07T05:31:33;5.10;;;4.40;;
78740;SDS011;68062;48.726;9.370;2023-05-07T05:33:59;5.90;;;4.90;;
78740;SDS011;68062;48.726;9.370;2023-05-07T05:36:28;6.13;;;5.10;;
78740;SDS011;68062;48.726;9.370;2023-05-07T05:38:56;5.27;;;4.97;;
78740;SDS011;68062;48.726;9.370;2023-05-07T05:41:23;5.03;;;4.10;;
78740;SDS011;68062;48.726;9.370;2023-05-07T05:43:50;6.03;;;4.90;;
78740;SDS011;68062;48.726;9.370;2023-05-07T05:46:17;6.47;;;4.80;;
78740;SDS011;68062;48.726;9.370;2023-05-07T05:48:45;8.10;;;4.80;;
78740;SDS011;68062;48.726;9.370;2023-05-07T05:51:11;8.70;;;6.10;;
78740;SDS011;68062;48.726;9.370;2023-05-07T05:53:39;5.87;;;4.63;;
78740;SDS011;68062;48.726;9.370;2023-05-07T05:56:07;6.33;;;4.83;;
78740;SDS011;68062;48.726;9.370;2023-05-07T05:58:34;4.87;;;4.57;;
78740;SDS011;68062;48.726;9.370;2023-05-07T06:01:04;4.70;;;4.40;;
78740;SDS011;68062;48.726;9.370;2023-05-07T06:03:31;5.17;;;4.87;;
78740;SDS011;68062;48.726;9.370;2023-05-07T06:06:01;4.73;;;4.33;;
78740;SDS011;68062;48.726;9.370;2023-05-07T06:08:29;7.93;;;4.20;;
78740;SDS011;68062;48.726;9.370;2023-05-07T06:10:57;5.90;;;4.90;;
78740;SDS011;68062;48.726;9.370;2023-05-07T06:13:25;4.00;;;3.80;;
78740;SDS011;68062;48.726;9.370;2023-05-07T06:15:52;6.67;;;4.60;;
78740;SDS011;68062;48.726;9.370;2023-05-07T06:18:19;3.90;;;3.70;;
78740;SDS011;68062;48.726;9.370;2023-05-07T06:20:46;3.97;;;3.63;;
78740;SDS011;68062;48.726;9.370;2023-05-07T06:23:21;5.17;;;3.60;;
78740;SDS011;68062;48.726;9.370;2023-05-07T06:25:48;4.67;;;3.60;;
78740;SDS011;68062;48.726;9.370;2023-05-07T06:28:18;5.33;;;3.30;;
78740;SDS011;68062;48.726;9.370;2023-05-07T06:30:46;3.20;;;3.00;;
78740;SDS011;68062;48.726;9.370;2023-05-07T06:33:14;3.60;;;3.40;;
78740;SDS011;68062;48.726;9.370;2023-05-07T06:35:41;3.60;;;3.40;;
78740;SDS011;68062;48.726;9.370;2023-05-07T06:38:07;3.70;;;3.13;;
78740;SDS011;68062;48.726;9.370;2023-05-07T06:40:36;3.80;;;3.60;;
78740;SDS011;68062;48.726;9.370;2023-05-07T06:43:03;3.70;;;3.40;;
78740;SDS011;68062;48.726;9.370;2023-05-07T06:45:42;3.90;;;3.43;;
78740;SDS011;68062;48.726;9.370;2023-05-07T06:48:09;3.83;;;3.23;;
78740;SDS011;68062;48.726;9.370;2023-05-07T06:50:46;6.90;;;3.47;;
78740;SDS011;68062;48.726;9.370;2023-05-07T06:53:12;5.03;;;3.53;;
78740;SDS011;68062;48.726;9.370;2023-05-07T06:55:40;4.00;;;3.80;;
78740;SDS011;68062;48.726;9.370;2023-05-07T06:58:07;4.10;;;2.73;;
78740;SDS011;68062;48.726;9.370;2023-05-07T07:00:33;4.13;;;3.23;;
78740;SDS011;68062;48.726;9.370;2023-05-07T07:03:01;2.80;;;2.60;;
78740;SDS011;68062;48.726;9.370;2023-05-07T07:05:29;3.37;;;3.10;;
78740;SDS011;68062;48.726;9.370;2023-05-07T07:07:57;5.10;;;4.80;;
78740;SDS011;68062;48.726;9.370;2023-05-07T07:10:24;4.10;;;3.27;;
78740;SDS011;68062;48.726;9.370;2023-05-07T07:12:53;3.47;;;3.00;;
78740;SDS011;68062;48.726;9.370;2023-05-07T07:15:21;3.10;;;2.93;;
78740;SDS011;68062;48.726;9.370;2023-05-07T07:17:49;4.90;;;3.23;;
78740;SDS011;68062;48.726;9.370;2023-05-07T07:20:17;3.00;;;2.80;;
78740;SDS011;68062;48.726;9.370;2023-05-07T07:22:44;3.23;;;3.10;;
78740;SDS011;68062;48.726;9.370;2023-05-07T07:25:11;2.90;;;2.70;;
78740;SDS011;68062;48.726;9.370;2023-05-07T07:30:31;2.77;;;2.57;;
78740;SDS011;68062;48.726;9.370;2023-05-07T07:32:58;4.60;;;3.30;;
78740;SDS011;68062;48.726;9.370;2023-05-07T07:35:29;3.30;;;3.10;;
78740;SDS011;68062;48.726;9.370;2023-05-07T07:37:56;4.90;;;2.83;;
78740;SDS011;68062;48.726;9.370;2023-05-07T07:40:23;3.53;;;2.83;;
78740;SDS011;68062;48.726;9.370;2023-05-07T07:42:50;3.30;;;3.10;;
78740;SDS011;68062;48.726;9.370;2023-05-07T07:45:17;3.17;;;2.97;;
78740;SDS011;68062;48.726;9.370;2023-05-07T07:47:46;3.80;;;2.70;;
78740;SDS011;68062;48.726;9.370;2023-05-07T07:50:13;3.40;;;3.20;;
78740;SDS011;68062;48.726;9.370;2023-05-07T07:52:42;2.90;;;2.30;;
78740;SDS011;68062;48.726;9.370;2023-05-07T07:55:09;3.50;;;2.40;;
78740;SDS011;68062;48.726;9.370;2023-05-07T07:57:38;5.10;;;2.97;;
78740;SDS011;68062;48.726;9.370;2023-05-07T08:00:05;2.87;;;2.50;;
78740;SDS011;68062;48.726;9.370;2023-05-07T08:02:41;2.77;;;2.57;;
78740;SDS011;68062;48.726;9.370;2023-05-07T08:05:10;4.03;;;2.57;;
78740;SDS011;68062;48.726;9.370;2023-05-07T08:07:37;3.80;;;2.80;;
78740;SDS011;68062;48.726;9.370;2023-05-07T08:10:06;2.40;;;2.20;;
78740;SDS011;68062;48.726;9.370;2023-05-07T08:12:33;2.60;;;2.40;;
78740;SDS011;68062;48.726;9.370;2023-05-07T08:14:59;4.70;;;3.00;;
78740;SDS011;68062;48.726;9.370;2023-05-07T08:17:26;2.30;;;2.10;;
78740;SDS011;68062;48.726;9.370;2023-05-07T08:19:53;3.70;;;2.90;;
78740;SDS011;68062;48.726;9.370;2023-05-07T08:22:20;3.10;;;2.90;;
78740;SDS011;68062;48.726;9.370;2023-05-07T08:24:48;3.10;;;2.90;;
78740;SDS011;68062;48.726;9.370;2023-05-07T08:27:17;3.33;;;3.17;;
78740;SDS011;68062;48.726;9.370;2023-05-07T08:29:43;3.00;;;2.80;;
78740;SDS011;68062;48.726;9.370;2023-05-07T08:32:13;3.23;;;2.70;;
78740;SDS011;68062;48.726;9.370;2023-05-07T08:34:39;4.13;;;3.57;;
78740;SDS011;68062;48.726;9.370;2023-05-07T08:37:06;3.80;;;3.60;;
78740;SDS011;68062;48.726;9.370;2023-05-07T08:39:34;3.40;;;3.20;;
78740;SDS011;68062;48.726;9.370;2023-05-07T08:42:03;3.50;;;3.30;;
78740;SDS011;68062;48.726;9.370;2023-05-07T08:44:34;4.40;;;3.30;;
78740;SDS011;68062;48.726;9.370;2023-05-07T08:47:01;3.00;;;2.80;;
78740;SDS011;68062;48.726;9.370;2023-05-07T08:49:29;3.20;;;2.87;;
78740;SDS011;68062;48.726;9.370;2023-05-07T08:51:56;2.83;;;2.63;;
78740;SDS011;68062;48.726;9.370;2023-05-07T08:54:24;4.67;;;3.97;;
78740;SDS011;68062;48.726;9.370;2023-05-07T08:56:52;4.80;;;3.17;;
78740;SDS011;68062;48.726;9.370;2023-05-07T08:59:18;2.90;;;2.70;;
78740;SDS011;68062;48.726;9.370;2023-05-07T09:01:47;3.33;;;3.13;;
78740;SDS011;68062;48.726;9.370;2023-05-07T09:04:15;5.53;;;2.80;;
78740;SDS011;68062;48.726;9.370;2023-05-07T09:06:42;3.13;;;2.93;;
78740;SDS011;68062;48.726;9.370;2023-05-07T09:09:13;3.30;;;3.10;;
78740;SDS011;68062;48.726;9.370;2023-05-07T09:11:42;3.40;;;3.20;;
78740;SDS011;68062;48.726;9.370;2023-05-07T09:14:11;3.77;;;2.40;;
78740;SDS011;68062;48.726;9.370;2023-05-07T09:16:41;2.80;;;2.60;;
78740;SDS011;68062;48.726;9.370;2023-05-07T09:19:09;2.90;;;2.70;;
78740;SDS011;68062;48.726;9.370;2023-05-07T09:21:41;2.80;;;2.60;;
78740;SDS011;68062;48.726;9.370;2023-05-07T09:24:09;3.73;;;3.53;;
78740;SDS011;68062;48.726;9.370;2023-05-07T09:26:39;3.30;;;2.80;;
78740;SDS011;68062;48.726;9.370;2023-05-07T09:29:07;4.30;;;2.50;;
78740;SDS011;68062;48.726;9.370;2023-05-07T09:31:36;2.57;;;2.37;;
78740;SDS011;68062;48.726;9.370;2023-05-07T09:34:04;2.70;;;2.50;;
78740;SDS011;68062;48.726;9.370;2023-05-07T09:36:34;2.40;;;2.20;;
78740;SDS011;68062;48.726;9.370;2023-05-07T09:39:02;4.70;;;2.83;;
78740;SDS011;68062;48.726;9.370;2023-05-07T09:41:29;3.03;;;2.87;;
78740;SDS011;68062;48.726;9.370;2023-05-07T09:44:12;3.23;;;3.03;;
78740;SDS011;68062;48.726;9.370;2023-05-07T09:46:44;3.53;;;3.33;;
78740;SDS011;68062;48.726;9.370;2023-05-07T09:49:20;3.17;;;3.00;;
78740;SDS011;68062;48.726;9.370;2023-05-07T09:51:53;3.80;;;3.20;;
78740;SDS011;68062;48.726;9.370;2023-05-07T09:54:23;3.10;;;2.90;;
78740;SDS011;68062;48.726;9.370;2023-05-07T09:56:53;3.17;;;2.97;;
78740;SDS011;68062;48.726;9.370;2023-05-07T09:59:24;3.93;;;2.77;;
78740;SDS011;68062;48.726;9.370;2023-05-07T10:01:53;3.60;;;3.00;;
78740;SDS011;68062;48.726;9.370;2023-05-07T10:04:22;3.17;;;3.00;;
78740;SDS011;68062;48.726;9.370;2023-05-07T10:06:53;3.83;;;2.90;;
78740;SDS011;68062;48.726;9.370;2023-05-07T10:09:21;3.67;;;3.00;;
78740;SDS011;68062;48.726;9.370;2023-05-07T10:11:48;2.60;;;2.40;;
78740;SDS011;68062;48.726;9.370;2023-05-07T10:14:16;3.17;;;2.73;;
78740;SDS011;68062;48.726;9.370;2023-05-07T10:16:43;3.53;;;3.33;;
78740;SDS011;68062;48.726;9.370;2023-05-07T10:19:15;4.67;;;4.40;;
78740;SDS011;68062;48.726;9.370;2023-05-07T10:21:48;4.70;;;2.80;;
78740;SDS011;68062;48.726;9.370;2023-05-07T10:24:26;3.70;;;2.40;;
78740;SDS011;68062;48.726;9.370;2023-05-07T10:26:56;3.80;;;3.30;;
78740;SDS011;68062;48.726;9.370;2023-05-07T10:29:29;2.77;;;2.63;;
78740;SDS011;68062;48.726;9.370;2023-05-07T10:32:09;3.10;;;2.90;;
78740;SDS011;68062;48.726;9.370;2023-05-07T10:34:54;3.33;;;2.70;;
78740;SDS011;68062;48.726;9.370;2023-05-07T10:37:25;3.57;;;2.43;;
78740;SDS011;68062;48.726;9.370;2023-05-07T10:39:55;2.30;;;2.10;;
78740;SDS011;68062;48.726;9.370;2023-05-07T10:42:23;6.10;;;3.23;;
78740;SDS011;68062;48.726;9.370;2023-05-07T10:44:52;3.13;;;2.93;;
78740;SDS011;68062;48.726;9.370;2023-05-07T10:47:24;3.23;;;2.80;;
78740;SDS011;68062;48.726;9.370;2023-05-07T11:02:12;3.40;;;2.37;;
78740;SDS011;68062;48.726;9.370;2023-05-07T11:07:53;3.80;;;2.17;;
78740;SDS011;68062;48.726;9.370;2023-05-07T11:10:21;2.80;;;2.20;;
78740;SDS011;68062;48.726;9.370;2023-05-07T11:12:55;2.47;;;2.27;;
78740;SDS011;68062;48.726;9.370;2023-05-07T11:15:42;3.40;;;2.30;;
78740;SDS011;68062;48.726;9.370;2023-05-07T11:18:21;4.20;;;3.27;;
78740;SDS011;68062;48.726;9.370;2023-05-07T11:20:54;5.77;;;2.40;;
78740;SDS011;68062;48.726;9.370;2023-05-07T11:23:55;3.00;;;2.03;;
78740;SDS011;68062;48.726;9.370;2023-05-07T11:26:43;2.40;;;2.20;;
78740;SDS011;68062;48.726;9.370;2023-05-07T11:29:15;2.33;;;2.13;;
78740;SDS011;68062;48.726;9.370;2023-05-07T11:31:47;2.53;;;1.90;;
78740;SDS011;68062;48.726;9.370;2023-05-07T11:34:20;4.40;;;2.00;;
78740;SDS011;68062;48.726;9.370;2023-05-07T11:36:47;2.50;;;2.30;;
78740;SDS011;68062;48.726;9.370;2023-05-07T11:39:26;2.57;;;2.40;;
78740;SDS011;68062;48.726;9.370;2023-05-07T11:41:53;2.80;;;2.60;;
78740;SDS011;68062;48.726;9.370;2023-05-07T11:44:20;2.37;;;2.17;;
78740;SDS011;68062;48.726;9.370;2023-05-07T11:46:49;2.60;;;2.40;;
78740;SDS011;68062;48.726;9.370;2023-05-07T11:49:16;3.07;;;2.20;;
78740;SDS011;68062;48.726;9.370;2023-05-07T11:51:43;1.67;;;1.60;;
78740;SDS011;68062;48.726;9.370;2023-05-07T11:54:11;2.30;;;2.10;;
78740;SDS011;68062;48.726;9.370;2023-05-07T11:56:41;2.40;;;2.20;;
78740;SDS011;68062;48.726;9.370;2023-05-07T11:59:08;2.47;;;2.03;;
78740;SDS011;68062;48.726;9.370;2023-05-07T12:01:35;2.20;;;2.00;;
78740;SDS011;68062;48.726;9.370;2023-05-07T12:04:04;3.37;;;2.40;;
78740;SDS011;68062;48.726;9.370;2023-05-07T12:06:31;2.37;;;2.17;;
78740;SDS011;68062;48.726;9.370;2023-05-07T12:09:03;2.00;;;1.67;;
78740;SDS011;68062;48.726;9.370;2023-05-07T12:11:32;5.00;;;1.83;;
78740;SDS011;68062;48.726;9.370;2023-05-07T12:13:58;2.63;;;2.10;;
78740;SDS011;68062;48.726;9.370;2023-05-07T12:16:25;2.20;;;2.00;;
78740;SDS011;68062;48.726;9.370;2023-05-07T12:18:53;2.40;;;2.20;;
78740;SDS011;68062;48.726;9.370;2023-05-07T12:21:22;3.17;;;2.23;;
78740;SDS011;68062;48.726;9.370;2023-05-07T12:23:50;2.87;;;2.13;;
78740;SDS011;68062;48.726;9.370;2023-05-07T12:26:18;2.57;;;2.13;;
78740;SDS011;68062;48.726;9.370;2023-05-07T12:28:45;2.23;;;2.07;;
78740;SDS011;68062;48.726;9.370;2023-05-07T12:31:13;2.90;;;2.30;;
78740;SDS011;68062;48.726;9.370;2023-05-07T12:33:41;2.33;;;2.10;;
78740;SDS011;68062;48.726;9.370;2023-05-07T12:36:08;3.40;;;2.40;;
78740;SDS011;68062;48.726;9.370;2023-05-07T12:38:37;2.67;;;2.53;;
78740;SDS011;68062;48.726;9.370;2023-05-07T12:41:06;2.20;;;2.00;;
78740;SDS011;68062;48.726;9.370;2023-05-07T12:43:34;2.00;;;1.90;;
78740;SDS011;68062;48.726;9.370;2023-05-07T12:46:01;2.67;;;2.47;;
78740;SDS011;68062;48.726;9.370;2023-05-07T12:48:30;2.33;;;2.00;;
78740;SDS011;68062;48.726;9.370;2023-05-07T12:50:58;2.23;;;2.03;;
78740;SDS011;68062;48.726;9.370;2023-05-07T12:53:27;2.03;;;1.80;;
78740;SDS011;68062;48.726;9.370;2023-05-07T12:55:56;2.13;;;1.83;;
78740;SDS011;68062;48.726;9.370;2023-05-07T12:58:25;1.73;;;1.67;;
78740;SDS011;68062;48.726;9.370;2023-05-07T13:00:53;2.77;;;2.57;;
78740;SDS011;68062;48.726;9.370;2023-05-07T13:03:24;2.87;;;1.93;;
78740;SDS011;68062;48.726;9.370;2023-05-07T13:05:52;3.10;;;1.93;;
78740;SDS011;68062;48.726;9.370;2023-05-07T13:08:23;3.90;;;2.40;;
78740;SDS011;68062;48.726;9.370;2023-05-07T13:10:51;4.37;;;3.20;;
78740;SDS011;68062;48.726;9.370;2023-05-07T13:13:20;7.20;;;3.33;;
78740;SDS011;68062;48.726;9.370;2023-05-07T13:15:46;6.10;;;3.90;;
78740;SDS011;68062;48.726;9.370;2023-05-07T13:18:13;4.73;;;3.40;;
78740;SDS011;68062;48.726;9.370;2023-05-07T13:20:40;3.30;;;2.73;;
78740;SDS011;68062;48.726;9.370;2023-05-07T13:23:07;5.43;;;3.83;;
78740;SDS011;68062;48.726;9.370;2023-05-07T13:25:34;4.83;;;3.60;;
78740;SDS011;68062;48.726;9.370;2023-05-07T13:28:01;3.80;;;3.60;;
78740;SDS011;68062;48.726;9.370;2023-05-07T13:30:30;5.00;;;3.30;;
78740;SDS011;68062;48.726;9.370;2023-05-07T13:32:56;3.90;;;3.30;;
78740;SDS011;68062;48.726;9.370;2023-05-07T13:35:23;5.47;;;3.50;;
78740;SDS011;68062;48.726;9.370;2023-05-07T13:37:50;4.20;;;3.30;;
78740;SDS011;68062;48.726;9.370;2023-05-07T13:40:17;5.30;;;3.53;;
78740;SDS011;68062;48.726;9.370;2023-05-07T13:42:44;6.00;;;2.97;;
78740;SDS011;68062;48.726;9.370;2023-05-07T13:45:11;4.13;;;3.87;;
78740;SDS011;68062;48.726;9.370;2023-05-07T13:47:40;3.83;;;3.63;;
78740;SDS011;68062;48.726;9.370;2023-05-07T13:50:07;4.33;;;3.40;;
78740;SDS011;68062;48.726;9.370;2023-05-07T13:52:35;4.13;;;2.63;;
78740;SDS011;68062;48.726;9.370;2023-05-07T13:55:01;2.67;;;2.47;;
78740;SDS011;68062;48.726;9.370;2023-05-07T13:57:28;3.07;;;2.10;;
78740;SDS011;68062;48.726;9.370;2023-05-07T13:59:55;3.53;;;2.70;;
78740;SDS011;68062;48.726;9.370;2023-05-07T14:02:22;3.13;;;2.50;;
78740;SDS011;68062;48.726;9.370;2023-05-07T14:04:52;4.23;;;2.23;;
78740;SDS011;68062;48.726;9.370;2023-05-07T14:07:19;2.60;;;2.43;;
78740;SDS011;68062;48.726;9.370;2023-05-07T14:09:46;3.63;;;3.20;;
78740;SDS011;68062;48.726;9.370;2023-05-07T14:12:13;4.00;;;2.73;;
78740;SDS011;68062;48.726;9.370;2023-05-07T14:14:41;4.03;;;1.90;;
78740;SDS011;68062;48.726;9.370;2023-05-07T14:17:08;4.40;;;2.77;;
78740;SDS011;68062;48.726;9.370;2023-05-07T14:19:35;3.47;;;2.90;;
78740;SDS011;68062;48.726;9.370;2023-05-07T14:22:04;2.40;;;2.20;;
78740;SDS011;68062;48.726;9.370;2023-05-07T14:24:30;3.23;;;2.87;;
78740;SDS011;68062;48.726;9.370;2023-05-07T14:26:58;2.50;;;2.30;;
78740;SDS011;68062;48.726;9.370;2023-05-07T14:29:24;6.30;;;3.53;;
78740;SDS011;68062;48.726;9.370;2023-05-07T14:31:51;3.90;;;2.90;;
78740;SDS011;68062;48.726;9.370;2023-05-07T14:34:18;2.73;;;2.53;;
78740;SDS011;68062;48.726;9.370;2023-05-07T14:36:44;4.10;;;2.33;;
78740;SDS011;68062;48.726;9.370;2023-05-07T14:39:13;3.10;;;2.70;;
78740;SDS011;68062;48.726;9.370;2023-05-07T14:41:39;2.97;;;2.47;;
78740;SDS011;68062;48.726;9.370;2023-05-07T14:44:06;3.47;;;2.60;;
78740;SDS011;68062;48.726;9.370;2023-05-07T14:46:33;3.50;;;3.13;;
78740;SDS011;68062;48.726;9.370;2023-05-07T14:49:01;3.03;;;2.60;;
78740;SDS011;68062;48.726;9.370;2023-05-07T14:51:28;2.43;;;2.23;;
78740;SDS011;68062;48.726;9.370;2023-05-07T14:53:56;2.30;;;1.97;;
78740;SDS011;68062;48.726;9.370;2023-05-07T14:56:23;10.67;;;2.70;;
78740;SDS011;68062;48.726;9.370;2023-05-07T14:58:51;5.53;;;2.80;;
78740;SDS011;68062;48.726;9.370;2023-05-07T15:01:18;3.10;;;2.30;;
78740;SDS011;68062;48.726;9.370;2023-05-07T15:03:44;5.80;;;3.37;;
78740;SDS011;68062;48.726;9.370;2023-05-07T15:06:11;9.07;;;3.60;;
78740;SDS011;68062;48.726;9.370;2023-05-07T15:08:38;4.70;;;2.80;;
78740;SDS011;68062;48.726;9.370;2023-05-07T15:11:04;2.80;;;2.53;;
78740;SDS011;68062;48.726;9.370;2023-05-07T15:13:33;4.63;;;3.43;;